Time;durP1;ratioP1;P1;durP2;ratioP2;P2;SDS_P1;SDS_P2;PMS_P1;PMS_P2;Temp;Humidity;BMP_temperature;BMP_pressure;BME280_temperature;BME280_humidity;BME280_pressure;Samples;Min_cycle;Max_cycle;Signal;HPM_P1;HPM_P2
2023/01/04 07:18:54;;;;;;;15.50;8.23;;;1.20;99.90;;;;;;6272306;23;20006;-82
2023/01/04 07:21:28;;;;;;;15.27;9.02;;;1.40;99.90;;;;;;6275729;23;20063;-83
2023/01/04 07:24:02;;;;;;;15.45;8.52;;;1.50;99.90;;;;;;6263862;23;20498;-82
2023/01/04 07:26:34;;;;;;;20.23;9.52;;;1.60;99.90;;;;;;6275428;23;20046;-83
2023/01/04 07:29:17;;;;;;;22.92;10.63;;;1.70;99.90;;;;;;6275977;23;20038;-81
2023/01/04 07:31:50;;;;;;;15.70;9.55;;;1.70;99.90;;;;;;6273180;23;20335;-81
2023/01/04 07:34:23;;;;;;;20.88;10.75;;;1.80;99.90;;;;;;6276753;23;20001;-80
2023/01/04 07:36:55;;;;;;;20.70;11.30;;;1.80;99.90;;;;;;6270314;23;19995;-80
2023/01/04 07:39:26;;;;;;;17.10;10.70;;;1.90;99.90;;;;;;6292248;23;20009;-79
2023/01/04 07:41:57;;;;;;;22.15;12.68;;;2.00;99.90;;;;;;6271099;23;19998;-79
2023/01/04 07:44:28;;;;;;;21.80;12.35;;;2.10;99.90;;;;;;6293319;23;19998;-79
2023/01/04 07:47:02;;;;;;;33.00;14.68;;;2.20;99.90;;;;;;6270915;23;20414;-80
2023/01/04 07:49:33;;;;;;;27.02;13.93;;;2.30;99.90;;;;;;6268393;23;19997;-79
2023/01/04 07:52:04;;;;;;;29.55;14.23;;;2.50;99.90;;;;;;6269586;23;20415;-79
2023/01/04 07:54:36;;;;;;;25.20;13.43;;;2.60;99.90;;;;;;6280014;23;20070;-80
2023/01/04 07:57:07;;;;;;;25.70;14.02;;;2.70;99.90;;;;;;6265405;23;20021;-80
2023/01/04 07:59:39;;;;;;;27.17;14.50;;;2.80;99.90;;;;;;6283784;23;20025;-79
2023/01/04 08:02:15;;;;;;;30.33;15.20;;;3.00;99.90;;;;;;6272877;23;20007;-80
2023/01/04 08:04:46;;;;;;;31.80;14.75;;;3.20;99.90;;;;;;6264854;22;20070;-81
2023/01/04 08:07:20;;;;;;;23.70;14.13;;;3.40;99.90;;;;;;6287816;23;19999;-81
2023/01/04 08:09:51;;;;;;;27.10;14.77;;;3.60;99.90;;;;;;6270543;23;20058;-83
2023/01/04 08:12:22;;;;;;;30.33;15.35;;;3.70;99.90;;;;;;6294896;23;19991;-81
2023/01/04 08:14:56;;;;;;;31.23;14.60;;;3.90;99.90;;;;;;6267859;23;20298;-81
2023/01/04 08:17:27;;;;;;;27.85;15.38;;;3.90;99.90;;;;;;6266899;23;19997;-80
2023/01/04 08:20:00;;;;;;;24.17;14.90;;;4.10;99.90;;;;;;6270323;23;20026;-80
2023/01/04 08:22:31;;;;;;;25.35;14.95;;;4.30;99.90;;;;;;6271920;23;19995;-80
2023/01/04 08:25:09;;;;;;;24.05;13.90;;;4.40;99.90;;;;;;6271972;23;20054;-81
2023/01/04 08:27:43;;;;;;;21.30;12.25;;;4.50;99.90;;;;;;6271726;23;20001;-82
2023/01/04 08:30:14;;;;;;;21.45;11.73;;;4.60;99.90;;;;;;6271171;23;20003;-82
2023/01/04 08:32:45;;;;;;;19.98;11.23;;;4.60;99.90;;;;;;6294447;23;20522;-81
2023/01/04 08:35:19;;;;;;;17.63;10.57;;;4.60;99.90;;;;;;6271226;23;20009;-82
2023/01/04 08:37:50;;;;;;;14.90;10.02;;;4.70;99.90;;;;;;6271273;23;20050;-80
2023/01/04 08:40:22;;;;;;;16.70;9.85;;;4.70;99.90;;;;;;6270186;23;20013;-81
2023/01/04 08:42:53;;;;;;;15.55;10.25;;;4.90;99.90;;;;;;6270205;23;20049;-80
2023/01/04 08:45:24;;;;;;;16.42;9.68;;;5.00;99.90;;;;;;6270027;23;20066;-80
2023/01/04 08:47:55;;;;;;;15.88;10.98;;;5.20;99.90;;;;;;6270205;23;20013;-80
2023/01/04 08:50:29;;;;;;;14.50;9.55;;;5.40;99.90;;;;;;6270091;23;20050;-80
2023/01/04 08:53:00;;;;;;;15.48;9.68;;;5.50;99.90;;;;;;6270755;23;20050;-80
2023/01/04 08:55:32;;;;;;;13.48;9.25;;;5.70;99.90;;;;;;6269440;23;20231;-79
2023/01/04 08:58:06;;;;;;;14.38;9.20;;;5.80;99.90;;;;;;6269861;23;19998;-80
2023/01/04 09:00:37;;;;;;;12.82;8.50;;;5.70;99.90;;;;;;6290895;23;20017;-79
2023/01/04 09:03:11;;;;;;;14.88;8.60;;;5.90;99.90;;;;;;6268919;23;20003;-78
2023/01/04 09:05:45;;;;;;;12.10;8.40;;;6.00;99.90;;;;;;6273431;22;20014;-78
2023/01/04 09:08:16;;;;;;;16.77;9.90;;;6.10;99.90;;;;;;6274514;23;20272;-79
2023/01/04 09:10:47;;;;;;;13.05;8.38;;;6.30;99.90;;;;;;6269143;23;20254;-80
2023/01/04 09:13:18;;;;;;;12.15;8.45;;;6.60;99.90;;;;;;6269178;23;20060;-80
2023/01/04 09:15:51;;;;;;;16.73;8.43;;;6.80;99.90;;;;;;6293604;23;20013;-81
2023/01/04 09:18:22;;;;;;;13.77;8.32;;;7.00;99.90;;;;;;6270461;23;20380;-79
2023/01/04 09:20:55;;;;;;;13.05;7.82;;;7.20;99.90;;;;;;6270351;23;20011;-79
2023/01/04 09:23:27;;;;;;;12.02;8.65;;;7.40;99.90;;;;;;6270382;23;20001;-80
2023/01/04 09:26:06;;;;;;;10.52;8.25;;;7.60;99.90;;;;;;6271736;23;19995;-79
2023/01/04 09:28:38;;;;;;;11.82;7.35;;;7.70;99.90;;;;;;6272501;23;20261;-80
2023/01/04 09:31:20;;;;;;;12.18;8.18;;;7.90;99.90;;;;;;6272119;23;20002;-80
2023/01/04 09:33:55;;;;;;;12.52;8.32;;;8.00;99.90;;;;;;6272675;23;20065;-84
2023/01/04 09:36:27;;;;;;;12.77;7.72;;;8.20;99.90;;;;;;6271863;23;20175;-81
2023/01/04 09:39:04;;;;;;;10.70;7.53;;;8.40;99.90;;;;;;6294056;23;20288;-80
2023/01/04 09:41:44;;;;;;;12.75;8.52;;;8.60;99.90;;;;;;6269262;23;20006;-78
2023/01/04 09:44:42;;;;;;;13.40;7.78;;;8.50;99.90;;;;;;6271452;23;20335;-79
2023/01/04 09:47:22;;;;;;;14.40;7.40;;;8.70;99.90;;;;;;6370423;23;19995;-80
2023/01/04 09:50:10;;;;;;;11.35;7.65;;;9.00;99.90;;;;;;6270227;23;20440;-80
2023/01/04 09:53:16;;;;;;;12.90;7.80;;;9.50;99.90;;;;;;6271554;23;20039;-81
2023/01/04 09:55:51;;;;;;;10.18;6.80;;;9.90;99.90;;;;;;6269931;23;20082;-82
2023/01/04 09:58:27;;;;;;;11.70;8.68;;;10.60;99.90;;;;;;6271540;23;20054;-82
2023/01/04 10:01:22;;;;;;;11.52;5.78;;;11.10;54.80;;;;;;6271508;23;20429;-81
2023/01/04 10:04:14;;;;;;;17.30;6.60;;;11.60;30.40;;;;;;6272120;23;20009;-81
2023/01/04 10:06:51;;;;;;;8.85;5.47;;;12.20;1.00;;;;;;6232759;23;20045;-80
2023/01/04 10:09:23;;;;;;;8.73;5.40;;;12.90;1.00;;;;;;6270920;23;20291;-81
2023/01/04 10:12:29;;;;;;;8.23;5.25;;;13.30;1.00;;;;;;6293967;23;20343;-80
2023/01/04 10:15:20;;;;;;;7.50;3.63;;;13.70;1.00;;;;;;6302352;23;20067;-81
2023/01/04 10:17:59;;;;;;;4.15;3.35;;;14.30;1.00;;;;;;6277537;23;20489;-81
2023/01/04 10:20:45;;;;;;;2.80;2.38;;;14.50;1.00;;;;;;6302888;23;20017;-81
2023/01/04 10:23:43;;;;;;;3.15;2.30;;;14.30;1.00;;;;;;6288481;23;20014;-81
2023/01/04 10:26:17;;;;;;;2.78;2.35;;;14.40;1.00;;;;;;6302881;23;20002;-80
2023/01/04 10:29:28;;;;;;;2.75;2.50;;;14.20;1.00;;;;;;6303084;23;20001;-80
2023/01/04 10:32:07;;;;;;;3.55;2.30;;;14.00;1.00;;;;;;6228233;23;19994;-80
2023/01/04 10:34:42;;;;;;;2.40;2.20;;;14.50;1.00;;;;;;6303610;23;20009;-80
2023/01/04 10:37:32;;;;;;;2.30;2.10;;;14.50;1.00;;;;;;6302491;23;20006;-80
2023/01/04 10:40:13;;;;;;;2.88;2.10;;;15.20;1.00;;;;;;6303502;23;20002;-80
2023/01/04 10:43:14;;;;;;;2.42;2.00;;;15.40;1.00;;;;;;6278573;23;20354;-80
2023/01/04 10:46:03;;;;;;;2.55;2.35;;;15.90;1.00;;;;;;6300393;23;19994;-80
2023/01/04 10:48:56;;;;;;;4.40;2.45;;;15.70;1.00;;;;;;6293125;23;20009;-80
2023/01/04 10:51:58;;;;;;;2.30;2.00;;;15.40;1.00;;;;;;6271663;23;20046;-79
2023/01/04 10:54:41;;;;;;;2.42;2.22;;;15.40;1.00;;;;;;6270152;23;19999;-81
2023/01/04 10:57:25;;;;;;;2.40;2.15;;;16.50;1.00;;;;;;6271329;23;20350;-80
2023/01/04 11:00:05;;;;;;;4.35;3.05;;;17.40;1.00;;;;;;6271503;23;20006;-80
2023/01/04 11:02:54;;;;;;;5.35;3.15;;;17.50;1.00;;;;;;6269876;23;20018;-80
2023/01/04 11:05:40;;;;;;;3.78;2.50;;;17.40;1.00;;;;;;6271658;22;20110;-80
2023/01/04 11:08:20;;;;;;;3.63;2.90;;;17.80;1.00;;;;;;6269149;23;20009;-80
2023/01/04 11:10:54;;;;;;;8.18;4.43;;;18.30;1.00;;;;;;6280852;23;20002;-81
2023/01/04 11:13:25;;;;;;;5.00;3.63;;;18.20;21.20;;;;;;6272235;23;20021;-80
2023/01/04 11:16:04;;;;;;;6.20;3.97;;;18.60;5.50;;;;;;6272829;23;20062;-79
2023/01/04 11:18:38;;;;;;;5.72;2.90;;;18.80;1.00;;;;;;6248471;23;20001;-81
2023/01/04 11:21:13;;;;;;;4.13;3.10;;;19.20;13.40;;;;;;6271920;23;20011;-80
2023/01/04 11:23:44;;;;;;;9.63;4.00;;;19.50;13.80;;;;;;6271802;23;20070;-80
2023/01/04 11:26:23;;;;;;;6.38;3.58;;;19.30;3.50;;;;;;6272436;23;20074;-80
2023/01/04 11:28:59;;;;;;;3.55;3.25;;;18.20;22.00;;;;;;6270931;23;20002;-80
2023/01/04 11:32:00;;;;;;;2.95;2.65;;;17.90;19.70;;;;;;6272068;23;20070;-80
2023/01/04 11:34:56;;;;;;;4.35;2.90;;;18.30;20.20;;;;;;6293959;23;19995;-79
2023/01/04 11:37:39;;;;;;;4.72;3.42;;;17.70;13.80;;;;;;6271800;23;20460;-80
2023/01/04 11:40:17;;;;;;;7.10;3.75;;;18.10;4.50;;;;;;6259614;22;20017;-79
2023/01/04 11:42:54;;;;;;;3.15;2.85;;;18.00;9.60;;;;;;6270547;23;19995;-79
2023/01/04 11:45:29;;;;;;;4.82;3.10;;;18.30;1.00;;;;;;6270472;23;19995;-79
2023/01/04 11:48:00;;;;;;;;;;;18.20;1.00;;;;;;6271067;23;20054;-84
2023/01/04 11:50:57;;;;;;;3.60;3.03;;;18.00;8.50;;;;;;6271611;23;19912;-80
2023/01/04 11:53:37;;;;;;;4.78;3.63;;;18.30;6.20;;;;;;6278522;23;20002;-80
2023/01/04 11:56:13;;;;;;;5.95;4.15;;;18.20;10.60;;;;;;6302006;23;20049;-80
2023/01/04 11:59:05;;;;;;;5.93;3.15;;;18.90;10.30;;;;;;6302263;23;20422;-79
2023/01/04 12:01:41;;;;;;;4.22;2.80;;;18.10;10.10;;;;;;6302900;23;20018;-79
2023/01/04 12:04:22;;;;;;;3.92;3.10;;;17.60;10.30;;;;;;6290311;23;19997;-78
2023/01/04 12:07:01;;;;;;;8.07;4.03;;;18.20;5.40;;;;;;6279853;23;20010;-79
2023/01/04 12:09:38;;;;;;;3.67;2.90;;;18.60;7.00;;;;;;6304783;23;20005;-80
2023/01/04 12:12:14;;;;;;;4.25;3.00;;;18.80;17.20;;;;;;6304721;23;20088;-79
2023/01/04 12:14:48;;;;;;;2.92;2.65;;;19.20;7.70;;;;;;6305054;23;20349;-82
2023/01/04 12:17:35;;;;;;;3.70;3.28;;;19.30;20.00;;;;;;6280128;23;20194;-80
2023/01/04 12:20:14;;;;;;;4.30;3.10;;;20.00;1.00;;;;;;6302495;23;20009;-80
2023/01/04 12:22:48;;;;;;;4.43;3.58;;;20.10;1.00;;;;;;6301305;23;19995;-80
2023/01/04 12:25:31;;;;;;;4.30;2.95;;;19.60;1.00;;;;;;6270638;23;20184;-80
2023/01/04 12:28:07;;;;;;;4.18;2.90;;;18.50;1.00;;;;;;6271755;23;20332;-80
2023/01/04 12:30:45;;;;;;;4.60;3.25;;;18.40;1.00;;;;;;6270922;23;20009;-79
2023/01/04 12:33:29;;;;;;;3.70;2.85;;;18.70;1.00;;;;;;6269741;23;19999;-79
2023/01/04 12:36:06;;;;;;;3.40;2.45;;;18.90;1.00;;;;;;6270007;23;20067;-79
2023/01/04 12:38:58;;;;;;;3.80;2.80;;;18.30;1.00;;;;;;6269457;23;19999;-79
2023/01/04 12:41:37;;;;;;;3.55;2.45;;;17.20;1.00;;;;;;6270338;23;20019;-78
2023/01/04 12:44:38;;;;;;;3.45;2.33;;;17.60;1.00;;;;;;6270235;23;20066;-79
2023/01/04 12:50:54;;;;;;;1.85;1.65;;;19.60;10.50;;;;;;6269956;23;20001;-79
2023/01/04 12:54:06;;;;;;;1.85;1.70;;;20.00;3.70;;;;;;6268448;23;20175;-79
2023/01/04 12:57:11;;;;;;;4.55;2.10;;;20.60;1.00;;;;;;6269937;23;19995;-79
2023/01/04 12:59:59;;;;;;;1.63;1.52;;;20.00;1.00;;;;;;6269856;23;19999;-79
2023/01/04 13:02:51;;;;;;;2.78;1.90;;;19.80;1.00;;;;;;6270185;23;20077;-79
2023/01/04 13:05:22;;;;;;;2.72;2.10;;;17.70;1.00;;;;;;6270298;22;20015;-78
2023/01/04 13:07:59;;;;;;;1.73;1.63;;;17.80;1.00;;;;;;6268679;23;20003;-78
2023/01/04 13:10:33;;;;;;;1.88;1.58;;;18.20;1.00;;;;;;6268195;23;20236;-78
2023/01/04 13:13:42;;;;;;;3.33;2.00;;;18.60;1.00;;;;;;6270549;23;19998;-79
2023/01/04 13:16:48;;;;;;;1.60;1.50;;;18.70;1.00;;;;;;6269249;23;19995;-79
2023/01/04 13:19:27;;;;;;;2.33;1.80;;;19.00;1.00;;;;;;6277272;23;20047;-78
2023/01/04 13:22:09;;;;;;;2.10;1.45;;;18.90;1.00;;;;;;6270830;23;20059;-78
2023/01/04 13:24:42;;;;;;;1.50;1.40;;;19.30;1.00;;;;;;6269892;23;20009;-79
2023/01/04 13:27:21;;;;;;;2.33;1.50;;;19.00;1.00;;;;;;6270934;23;20042;-79
2023/01/04 13:29:52;;;;;;;1.92;1.55;;;18.40;1.00;;;;;;6270435;23;20002;-77
2023/01/04 13:32:33;;;;;;;3.38;2.20;;;18.20;1.00;;;;;;6265835;23;20007;-80
2023/01/04 13:35:12;;;;;;;3.50;2.22;;;17.20;1.00;;;;;;6262132;23;19994;-80
2023/01/04 13:37:50;;;;;;;2.78;1.85;;;16.50;1.00;;;;;;6268242;23;20089;-80
2023/01/04 13:40:34;;;;;;;2.42;1.67;;;16.50;1.00;;;;;;6269965;23;20017;-80
2023/01/04 13:43:33;;;;;;;1.70;1.60;;;16.10;1.00;;;;;;6269091;23;20009;-80
2023/01/04 13:46:33;;;;;;;2.03;1.60;;;15.60;1.00;;;;;;6270213;23;20001;-80
2023/01/04 13:49:12;;;;;;;2.40;1.80;;;14.80;1.00;;;;;;6278796;23;20021;-79
2023/01/04 13:51:43;;;;;;;3.33;2.00;;;14.30;1.00;;;;;;6293103;23;20065;-79
2023/01/04 13:54:25;;;;;;;1.83;1.73;;;13.80;1.00;;;;;;6292346;23;20002;-79
2023/01/04 13:57:08;;;;;;;6.93;2.22;;;13.40;1.00;;;;;;6266953;23;20005;-76
2023/01/04 13:59:39;;;;;;;3.03;2.15;;;12.90;1.00;;;;;;6205626;23;20014;-79
2023/01/04 14:02:20;;;;;;;2.63;1.73;;;12.40;99.90;;;;;;6269960;23;20062;-82
2023/01/04 14:04:51;;;;;;;2.38;1.67;;;12.20;99.90;;;;;;6263855;22;20091;-80
2023/01/04 14:07:26;;;;;;;1.90;1.70;;;12.00;99.90;;;;;;6091431;23;20019;-79
2023/01/04 14:10:01;;;;;;;4.60;2.58;;;11.90;1.00;;;;;;6266730;23;20007;-79
2023/01/04 14:12:33;;;;;;;3.00;2.30;;;11.70;1.00;;;;;;6271410;23;19998;-81
2023/01/04 14:15:32;;;;;;;6.45;2.47;;;11.50;1.00;;;;;;6270124;23;20058;-78
2023/01/04 14:18:23;;;;;;;4.00;2.50;;;11.10;1.00;;;;;;6271201;23;20029;-78
2023/01/04 14:20:55;;;;;;;2.75;2.08;;;10.90;1.00;;;;;;6271252;23;19998;-80
2023/01/04 14:23:37;;;;;;;3.05;2.13;;;10.90;1.00;;;;;;6288468;23;20007;-80
2023/01/04 14:26:32;;;;;;;5.50;2.47;;;10.80;1.00;;;;;;6270407;23;20038;-80
2023/01/04 14:29:28;;;;;;;5.25;2.85;;;10.80;1.00;;;;;;6271026;23;20489;-80
2023/01/04 14:32:03;;;;;;;5.10;2.72;;;10.70;1.00;;;;;;6272633;23;20054;-80
2023/01/04 14:34:35;;;;;;;3.63;2.50;;;10.70;1.00;;;;;;6268409;23;20006;-79
2023/01/04 14:37:08;;;;;;;5.13;2.75;;;10.70;1.00;;;;;;6271970;23;20013;-78
2023/01/04 14:39:40;;;;;;;4.07;2.63;;;10.60;1.00;;;;;;6269927;23;20042;-78
2023/01/04 14:42:26;;;;;;;5.75;3.10;;;10.70;1.00;;;;;;6273626;23;20046;-78
2023/01/04 14:44:58;;;;;;;6.85;2.75;;;10.60;1.00;;;;;;6259346;23;20444;-79
2023/01/04 14:47:31;;;;;;;4.15;2.88;;;10.60;1.00;;;;;;6271381;23;19995;-79
2023/01/04 14:50:03;;;;;;;5.07;3.35;;;10.50;99.40;;;;;;6270992;23;20133;-80
2023/01/04 14:52:34;;;;;;;5.05;2.92;;;10.50;1.00;;;;;;6280087;23;20046;-79
2023/01/04 14:55:11;;;;;;;4.65;2.85;;;10.40;17.80;;;;;;6248928;23;19995;-79
2023/01/04 14:57:44;;;;;;;3.40;2.67;;;10.40;98.80;;;;;;6278752;23;20545;-79
2023/01/04 15:00:19;;;;;;;5.13;3.20;;;10.40;25.70;;;;;;6273339;23;20010;-79
2023/01/04 15:02:50;;;;;;;4.05;2.90;;;10.40;41.90;;;;;;6274230;23;20050;-80
2023/01/04 15:05:21;;;;;;;7.78;2.92;;;10.40;61.60;;;;;;6258399;23;20021;-80
2023/01/04 15:07:53;;;;;;;3.83;2.65;;;10.40;99.90;;;;;;6287179;23;20359;-80
2023/01/04 15:10:30;;;;;;;4.53;3.17;;;10.40;50.70;;;;;;6274296;23;20532;-81
2023/01/04 15:13:04;;;;;;;6.97;2.95;;;10.40;1.00;;;;;;6273721;23;20145;-80
2023/01/04 15:15:40;;;;;;;5.40;3.35;;;10.30;15.50;;;;;;6297722;23;20009;-81
2023/01/04 15:18:13;;;;;;;5.40;2.60;;;10.10;10.50;;;;;;6272321;23;20311;-81
2023/01/04 15:20:47;;;;;;;4.80;2.67;;;10.00;1.00;;;;;;6274035;23;20005;-81
2023/01/04 15:23:18;;;;;;;5.90;3.10;;;10.00;71.70;;;;;;6272094;23;20054;-81
2023/01/04 15:25:49;;;;;;;3.60;2.53;;;10.00;69.30;;;;;;6272135;23;20221;-84
2023/01/04 15:28:25;;;;;;;4.70;2.70;;;9.90;99.90;;;;;;6269110;23;20066;-81
2023/01/04 15:31:00;;;;;;;6.32;3.80;;;9.80;99.90;;;;;;6250409;23;20006;-81
2023/01/04 15:33:34;;;;;;;6.53;4.53;;;9.70;99.90;;;;;;6256286;23;20009;-81
2023/01/04 15:36:07;;;;;;;;;;;9.60;99.90;;;;;;6254473;23;20009;-81
2023/01/04 15:38:46;;;;;;;6.00;3.67;;;9.50;99.90;;;;;;6243417;23;19905;-81
2023/01/04 15:44:10;;;;;;;7.07;5.18;;;9.30;99.90;;;;;;6272608;23;20051;-81
2023/01/04 15:46:42;;;;;;;8.50;5.03;;;9.20;99.90;;;;;;6294218;23;19991;-81
2023/01/04 15:49:13;;;;;;;6.93;4.80;;;9.10;99.90;;;;;;6270376;23;20042;-81
2023/01/04 15:51:45;;;;;;;6.38;4.10;;;9.10;99.90;;;;;;6361540;23;20006;-80
2023/01/04 15:54:20;;;;;;;8.93;5.05;;;9.00;99.90;;;;;;6267365;23;20050;-80
2023/01/04 15:56:51;;;;;;;8.25;5.47;;;9.00;99.90;;;;;;6268195;23;20063;-81
2023/01/04 15:59:25;;;;;;;14.68;6.47;;;9.00;99.90;;;;;;6266629;23;20054;-83
2023/01/04 16:01:56;;;;;;;18.23;8.73;;;8.90;99.90;;;;;;6262922;23;20025;-81
2023/01/04 16:04:29;;;;;;;11.13;6.90;;;8.90;99.90;;;;;;6252309;23;21610;-81
2023/01/04 16:07:04;;;;;;;9.02;5.85;;;8.90;99.90;;;;;;6282029;23;20023;-80
2023/01/04 16:09:38;;;;;;;8.20;5.32;;;8.80;99.90;;;;;;6264915;23;20014;-80
2023/01/04 16:15:02;;;;;;;7.28;5.07;;;8.60;99.90;;;;;;6266314;23;20273;-81
2023/01/04 16:17:38;;;;;;;9.63;5.90;;;8.50;99.90;;;;;;6266656;23;20183;-80
2023/01/04 16:20:13;;;;;;;8.27;5.65;;;8.60;99.90;;;;;;6266903;23;19999;-82
2023/01/04 16:22:44;;;;;;;8.13;5.03;;;8.50;99.90;;;;;;6266791;23;20510;-81
2023/01/04 16:25:17;;;;;;;10.35;6.40;;;8.50;99.90;;;;;;6265715;23;20037;-80
2023/01/04 16:27:49;;;;;;;9.07;5.63;;;8.40;99.90;;;;;;6265057;23;19997;-80
2023/01/04 16:30:20;;;;;;;6.78;4.82;;;8.40;99.90;;;;;;6288340;23;20002;-77
2023/01/04 16:32:51;;;;;;;7.45;4.93;;;8.40;99.90;;;;;;6267447;23;20238;-78
2023/01/04 16:35:22;;;;;;;12.05;6.63;;;8.40;99.90;;;;;;6267470;23;20003;-79
2023/01/04 16:38:00;;;;;;;7.13;5.50;;;8.40;99.90;;;;;;6266876;23;20362;-78
2023/01/04 16:40:31;;;;;;;15.05;8.50;;;8.50;99.90;;;;;;6267187;23;20094;-80
2023/01/04 16:43:08;;;;;;;13.15;8.60;;;8.50;99.90;;;;;;6264811;23;20321;-81
2023/01/04 16:45:43;;;;;;;14.05;8.10;;;8.50;99.90;;;;;;6266438;23;20160;-78
2023/01/04 16:48:14;;;;;;;11.98;7.47;;;8.40;99.90;;;;;;6263822;23;20361;-78
2023/01/04 16:50:50;;;;;;;10.48;7.50;;;8.40;99.90;;;;;;6266478;23;20054;-78
2023/01/04 16:53:21;;;;;;;10.23;7.30;;;8.40;99.90;;;;;;6265976;23;20003;-78
2023/01/04 16:55:57;;;;;;;12.38;7.57;;;8.40;99.90;;;;;;6264678;23;20009;-78
2023/01/04 16:58:31;;;;;;;11.77;7.15;;;8.40;99.90;;;;;;6264238;23;20203;-78
2023/01/04 17:01:15;;;;;;;;;;;8.30;99.90;;;;;;6388753;23;20283;-81
2023/01/04 17:03:47;;;;;;;10.48;7.40;;;8.30;99.90;;;;;;6263358;23;19906;-78
2023/01/04 17:06:24;;;;;;;11.15;7.05;;;8.30;99.90;;;;;;6253126;23;20187;-78
2023/01/04 17:08:58;;;;;;;12.48;7.82;;;8.20;99.90;;;;;;6262369;23;20203;-79
2023/01/04 17:11:32;;;;;;;13.23;6.97;;;8.20;99.90;;;;;;6264764;23;20062;-80
2023/01/04 17:14:11;;;;;;;10.98;7.15;;;8.10;99.90;;;;;;6287408;23;20252;-80
2023/01/04 17:16:42;;;;;;;10.23;7.60;;;8.20;99.90;;;;;;6263054;23;20014;-79
2023/01/04 17:19:19;;;;;;;11.57;7.68;;;8.10;99.90;;;;;;6286861;23;19990;-81
2023/01/04 17:21:50;;;;;;;11.40;7.35;;;8.00;99.90;;;;;;6264249;23;20303;-81
2023/01/04 17:24:21;;;;;;;10.63;7.50;;;8.00;99.90;;;;;;6262651;23;20005;-80
2023/01/04 17:26:55;;;;;;;12.23;7.97;;;7.90;99.90;;;;;;6286709;23;19995;-80
2023/01/04 17:29:32;;;;;;;11.57;7.83;;;7.90;99.90;;;;;;6264294;23;20050;-79
2023/01/04 17:32:09;;;;;;;52.25;27.25;;;7.90;99.90;;;;;;6264308;23;20086;-78
2023/01/04 17:34:52;;;;;;;14.55;8.57;;;7.90;99.90;;;;;;6263214;23;20009;-80
2023/01/04 17:37:26;;;;;;;24.15;12.68;;;7.80;99.90;;;;;;6264925;23;20054;-81
2023/01/04 17:39:57;;;;;;;43.83;17.80;;;7.80;99.90;;;;;;6264382;23;20264;-79
2023/01/04 17:42:31;;;;;;;22.50;11.38;;;7.80;99.90;;;;;;6286130;23;19999;-78
2023/01/04 17:45:07;;;;;;;14.40;9.13;;;7.70;99.90;;;;;;6265344;23;20058;-79
2023/01/04 17:47:41;;;;;;;12.85;8.85;;;7.80;99.90;;;;;;6262600;23;20017;-80
2023/01/04 17:50:18;;;;;;;14.63;7.85;;;7.80;99.90;;;;;;6263336;23;20238;-80
2023/01/04 17:52:50;;;;;;;12.65;8.13;;;7.70;99.90;;;;;;6262838;23;20003;-78
2023/01/04 17:55:26;;;;;;;12.65;7.65;;;7.60;99.90;;;;;;6263278;23;20007;-80
2023/01/04 17:58:01;;;;;;;12.52;7.93;;;7.60;99.90;;;;;;6264085;23;20280;-81
2023/01/04 18:00:32;;;;;;;11.07;7.78;;;7.60;99.90;;;;;;6264100;23;19995;-78
2023/01/04 18:03:06;;;;;;;14.82;9.38;;;7.70;99.90;;;;;;6264009;23;20188;-78
2023/01/04 18:05:37;;;;;;;17.02;8.57;;;7.60;99.90;;;;;;6266925;22;20327;-80
2023/01/04 18:08:11;;;;;;;5.68;4.15;;;7.60;99.90;;;;;;6269725;23;20002;-81
2023/01/04 18:10:42;;;;;;;5.73;4.03;;;7.80;99.90;;;;;;6265033;23;20063;-79
2023/01/04 18:13:17;;;;;;;8.75;5.90;;;8.30;99.90;;;;;;6286439;23;20007;-78
2023/01/04 18:15:50;;;;;;;3.30;1.90;;;8.50;99.90;;;;;;6264060;23;20001;-80
2023/01/04 18:18:27;;;;;;;9.48;4.50;;;8.60;99.90;;;;;;6286791;23;20003;-79
2023/01/04 18:21:21;;;;;;;9.75;4.82;;;8.70;99.90;;;;;;6265115;23;20006;-80
2023/01/04 18:24:02;;;;;;;6.82;4.45;;;8.70;99.90;;;;;;6263208;23;20014;-79
2023/01/04 18:26:35;;;;;;;1.27;1.17;;;8.60;99.90;;;;;;6264616;23;20050;-81
2023/01/04 18:29:06;;;;;;;2.97;2.28;;;9.30;99.90;;;;;;6264910;23;20039;-81
2023/01/04 18:31:38;;;;;;;13.25;4.32;;;9.50;99.90;;;;;;6287461;23;20007;-81
2023/01/04 18:34:10;;;;;;;3.50;2.15;;;9.40;99.90;;;;;;6286136;23;20007;-78
2023/01/04 18:36:44;;;;;;;6.50;4.13;;;9.30;99.90;;;;;;6239875;23;20002;-79
2023/01/04 18:39:17;;;;;;;4.18;3.67;;;9.60;99.90;;;;;;6264464;23;20191;-79
2023/01/04 18:42:02;;;;;;;7.18;5.32;;;9.60;99.90;;;;;;6264575;23;20009;-80
2023/01/04 18:44:33;;;;;;;;;;;9.60;99.90;;;;;;6264655;23;20332;-79
2023/01/04 18:47:09;;;;;;;5.38;3.63;;;9.60;99.90;;;;;;6264982;23;19973;-82
2023/01/04 18:49:41;;;;;;;9.23;6.57;;;9.80;99.90;;;;;;6262789;23;20316;-81
2023/01/04 18:52:12;;;;;;;2.80;1.60;;;9.80;99.90;;;;;;6266650;23;19999;-81
2023/01/04 18:54:44;;;;;;;0.60;0.60;;;10.00;99.90;;;;;;6266294;23;20003;-81
2023/01/04 18:57:15;;;;;;;2.03;0.80;;;10.70;99.90;;;;;;6265531;23;20007;-78
2023/01/04 18:59:49;;;;;;;2.00;0.70;;;11.20;99.90;;;;;;6266910;23;19991;-80
2023/01/04 19:02:20;;;;;;;0.80;0.80;;;11.50;91.00;;;;;;6266345;23;20023;-80
2023/01/04 19:04:51;;;;;;;0.80;0.80;;;11.70;69.50;;;;;;6256530;23;20015;-78
2023/01/04 19:07:25;;;;;;;0.70;0.70;;;11.70;1.00;;;;;;6282161;23;20003;-79
2023/01/04 19:09:56;;;;;;;0.60;0.60;;;11.80;1.00;;;;;;6267265;23;20440;-79
2023/01/04 19:12:34;;;;;;;0.73;0.73;;;11.90;1.00;;;;;;6267638;23;20062;-83
2023/01/04 19:15:06;;;;;;;0.65;0.60;;;12.00;1.00;;;;;;6289476;23;20003;-79
2023/01/04 19:17:45;;;;;;;0.80;0.80;;;12.10;1.00;;;;;;6267754;23;20058;-79
2023/01/04 19:20:16;;;;;;;0.70;0.70;;;12.00;1.00;;;;;;6265015;23;19995;-80
2023/01/04 19:22:49;;;;;;;0.73;0.73;;;12.30;1.00;;;;;;6267866;23;20308;-79
2023/01/04 19:25:23;;;;;;;0.80;0.80;;;12.30;1.00;;;;;;6241592;23;20011;-81
2023/01/04 19:27:55;;;;;;;1.48;0.90;;;12.10;1.00;;;;;;6262877;23;19995;-79
2023/01/04 19:30:26;;;;;;;0.95;0.70;;;12.30;25.70;;;;;;6268264;23;20074;-80
2023/01/04 19:32:58;;;;;;;0.60;0.60;;;12.20;26.20;;;;;;6268792;23;20005;-79
2023/01/04 19:35:30;;;;;;;0.60;0.60;;;12.30;21.40;;;;;;6260732;23;20450;-80
2023/01/04 19:38:06;;;;;;;0.68;0.68;;;12.40;43.10;;;;;;6264167;23;20336;-79
2023/01/04 19:40:39;;;;;;;0.40;0.40;;;12.50;64.80;;;;;;6234795;23;20001;-80
2023/01/04 19:43:16;;;;;;;1.33;0.88;;;12.40;63.60;;;;;;6269964;23;20017;-80
2023/01/04 19:45:47;;;;;;;2.15;0.60;;;12.50;99.90;;;;;;6265167;23;20009;-82
2023/01/04 19:48:18;;;;;;;0.65;0.65;;;12.50;99.90;;;;;;6267191;23;19995;-79
2023/01/04 19:51:02;;;;;;;0.80;0.80;;;12.40;99.90;;;;;;6264361;23;19999;-80
2023/01/04 19:53:34;;;;;;;0.60;0.60;;;12.40;99.90;;;;;;6270612;23;19995;-79
2023/01/04 19:56:12;;;;;;;0.60;0.60;;;12.40;99.90;;;;;;6265140;23;20552;-79
2023/01/04 19:58:47;;;;;;;0.50;0.50;;;12.60;99.90;;;;;;6268797;23;20009;-79
2023/01/04 20:01:26;;;;;;;0.50;0.50;;;12.60;99.90;;;;;;6268803;23;20021;-79
2023/01/04 20:03:59;;;;;;;1.83;0.80;;;12.80;99.90;;;;;;6291998;23;20005;-80
2023/01/04 20:06:33;;;;;;;0.60;0.60;;;12.80;99.90;;;;;;6279453;23;20007;-80
2023/01/04 20:09:05;;;;;;;1.40;1.20;;;12.80;99.90;;;;;;6292008;23;20058;-79
2023/01/04 20:11:38;;;;;;;0.80;0.80;;;12.70;99.90;;;;;;6264716;23;20051;-79
2023/01/04 20:14:10;;;;;;;0.90;0.90;;;12.60;99.90;;;;;;6268138;23;19991;-79
2023/01/04 20:16:46;;;;;;;0.50;0.50;;;12.50;99.90;;;;;;6291595;23;20018;-78
2023/01/04 20:19:18;;;;;;;0.73;0.73;;;12.50;99.90;;;;;;6243418;23;20363;-78
2023/01/04 20:21:52;;;;;;;0.70;0.70;;;12.50;99.90;;;;;;6268596;23;20005;-78
2023/01/04 20:24:24;;;;;;;0.73;0.73;;;12.50;99.90;;;;;;6292239;23;20005;-78
2023/01/04 20:26:55;;;;;;;0.75;0.75;;;12.50;99.90;;;;;;6292680;23;20002;-78
2023/01/04 20:29:26;;;;;;;0.80;0.80;;;12.60;99.90;;;;;;6267938;23;20029;-78
2023/01/04 20:32:02;;;;;;;0.90;0.90;;;12.60;99.90;;;;;;6279488;23;20107;-79
2023/01/04 20:34:34;;;;;;;2.80;0.80;;;12.60;99.90;;;;;;6268858;23;20049;-78
2023/01/04 20:37:06;;;;;;;0.80;0.80;;;12.70;99.90;;;;;;6291411;23;20003;-78
2023/01/04 20:39:37;;;;;;;1.13;1.08;;;12.80;99.90;;;;;;6292091;23;19999;-78
2023/01/04 20:44:58;;;;;;;0.82;0.82;;;12.60;99.90;;;;;;6268285;23;19999;-78
2023/01/04 20:47:29;;;;;;;0.80;0.80;;;12.60;99.90;;;;;;6271781;23;20002;-78
2023/01/04 20:50:01;;;;;;;0.70;0.70;;;12.60;99.90;;;;;;6269139;23;19990;-78
2023/01/04 20:52:34;;;;;;;1.25;0.88;;;12.60;99.90;;;;;;6269511;23;20147;-78
2023/01/04 20:55:08;;;;;;;1.23;1.20;;;12.70;99.90;;;;;;6268822;23;20051;-78
2023/01/04 20:57:42;;;;;;;0.90;0.90;;;12.70;99.90;;;;;;6269354;23;20003;-78
2023/01/04 21:00:14;;;;;;;1.30;0.98;;;12.70;99.90;;;;;;6269156;23;20050;-78
2023/01/04 21:02:45;;;;;;;1.00;1.00;;;12.70;99.90;;;;;;6269816;23;20033;-77
2023/01/04 21:05:17;;;;;;;0.85;0.85;;;12.80;99.90;;;;;;6267275;22;20022;-77
2023/01/04 21:07:48;;;;;;;0.75;0.75;;;12.80;99.90;;;;;;6278266;23;20006;-80
2023/01/04 21:10:21;;;;;;;0.63;0.63;;;12.80;93.90;;;;;;6268942;23;20006;-79